sensor_id;sensor_type;location;lat;lon;timestamp;temperature;humidity
19941;DHT22;10132;50.864;5.176;2022-07-29T00:02:01;18.30;99.90
19941;DHT22;10132;50.864;5.176;2022-07-29T00:04:03;18.40;99.90
19941;DHT22;10132;50.864;5.176;2022-07-29T00:06:05;18.30;99.90
19941;DHT22;10132;50.864;5.176;2022-07-29T00:08:08;18.30;99.90
19941;DHT22;10132;50.864;5.176;2022-07-29T00:10:11;18.30;99.90
19941;DHT22;10132;50.864;5.176;2022-07-29T00:12:13;18.30;99.90
19941;DHT22;10132;50.864;5.176;2022-07-29T00:14:15;18.20;99.90
19941;DHT22;10132;50.864;5.176;2022-07-29T00:16:17;18.20;99.90
19941;DHT22;10132;50.864;5.176;2022-07-29T00:18:19;18.10;99.90
19941;DHT22;10132;50.864;5.176;2022-07-29T00:20:21;18.00;99.90
19941;DHT22;10132;50.864;5.176;2022-07-29T00:22:23;17.90;99.90
19941;DHT22;10132;50.864;5.176;2022-07-29T00:24:25;17.90;99.90
19941;DHT22;10132;50.864;5.176;2022-07-29T00:26:28;17.90;99.90
19941;DHT22;10132;50.864;5.176;2022-07-29T00:28:32;17.90;99.90
19941;DHT22;10132;50.864;5.176;2022-07-29T00:30:34;17.90;99.90
19941;DHT22;10132;50.864;5.176;2022-07-29T00:32:36;17.90;99.90
19941;DHT22;10132;50.864;5.176;2022-07-29T00:34:38;17.80;99.90
19941;DHT22;10132;50.864;5.176;2022-07-29T00:36:57;17.70;99.90
19941;DHT22;10132;50.864;5.176;2022-07-29T00:38:59;17.80;99.90
19941;DHT22;10132;50.864;5.176;2022-07-29T00:41:01;17.70;99.90
19941;DHT22;10132;50.864;5.176;2022-07-29T00:43:05;17.80;99.90
19941;DHT22;10132;50.864;5.176;2022-07-29T00:45:08;17.90;99.90
19941;DHT22;10132;50.864;5.176;2022-07-29T00:47:10;17.90;99.90
19941;DHT22;10132;50.864;5.176;2022-07-29T00:49:12;18.00;99.90
19941;DHT22;10132;50.864;5.176;2022-07-29T00:51:15;17.90;99.90
19941;DHT22;10132;50.864;5.176;2022-07-29T00:53:17;17.80;99.90
19941;DHT22;10132;50.864;5.176;2022-07-29T00:55:19;17.70;99.90
19941;DHT22;10132;50.864;5.176;2022-07-29T00:57:21;17.80;99.90
19941;DHT22;10132;50.864;5.176;2022-07-29T00:59:25;17.70;99.90
19941;DHT22;10132;50.864;5.176;2022-07-29T01:01:27;17.90;99.90
19941;DHT22;10132;50.864;5.176;2022-07-29T01:03:29;18.00;99.90
19941;DHT22;10132;50.864;5.176;2022-07-29T01:05:32;18.10;99.90
19941;DHT22;10132;50.864;5.176;2022-07-29T01:07:35;18.20;99.90
19941;DHT22;10132;50.864;5.176;2022-07-29T01:09:37;18.20;99.90
19941;DHT22;10132;50.864;5.176;2022-07-29T01:11:40;18.10;99.90
19941;DHT22;10132;50.864;5.176;2022-07-29T01:13:42;18.00;99.90
19941;DHT22;10132;50.864;5.176;2022-07-29T01:15:51;17.80;99.90
19941;DHT22;10132;50.864;5.176;2022-07-29T01:18:00;17.60;99.90
19941;DHT22;10132;50.864;5.176;2022-07-29T01:20:07;17.60;99.90
19941;DHT22;10132;50.864;5.176;2022-07-29T01:22:25;17.60;99.90
19941;DHT22;10132;50.864;5.176;2022-07-29T01:24:39;17.40;99.90
19941;DHT22;10132;50.864;5.176;2022-07-29T01:26:47;17.30;99.90
19941;DHT22;10132;50.864;5.176;2022-07-29T01:29:05;17.10;99.90
19941;DHT22;10132;50.864;5.176;2022-07-29T01:31:10;16.90;99.90
19941;DHT22;10132;50.864;5.176;2022-07-29T01:33:15;16.80;99.90
19941;DHT22;10132;50.864;5.176;2022-07-29T01:35:36;16.80;99.90
19941;DHT22;10132;50.864;5.176;2022-07-29T01:37:44;16.90;99.90
19941;DHT22;10132;50.864;5.176;2022-07-29T01:39:48;17.10;99.90
19941;DHT22;10132;50.864;5.176;2022-07-29T01:41:57;17.40;99.90
19941;DHT22;10132;50.864;5.176;2022-07-29T01:44:05;17.60;99.90
19941;DHT22;10132;50.864;5.176;2022-07-29T01:46:14;17.60;99.90
19941;DHT22;10132;50.864;5.176;2022-07-29T01:48:23;17.50;99.90
19941;DHT22;10132;50.864;5.176;2022-07-29T01:50:30;17.40;99.90
19941;DHT22;10132;50.864;5.176;2022-07-29T01:52:37;17.40;99.90
19941;DHT22;10132;50.864;5.176;2022-07-29T01:54:44;17.40;99.90
19941;DHT22;10132;50.864;5.176;2022-07-29T01:56:51;17.40;99.90
19941;DHT22;10132;50.864;5.176;2022-07-29T01:58:54;17.50;99.90
19941;DHT22;10132;50.864;5.176;2022-07-29T02:00:58;17.50;99.90
19941;DHT22;10132;50.864;5.176;2022-07-29T02:03:05;17.50;99.90
19941;DHT22;10132;50.864;5.176;2022-07-29T02:05:11;17.50;99.90
19941;DHT22;10132;50.864;5.176;2022-07-29T02:07:18;17.50;99.90
19941;DHT22;10132;50.864;5.176;2022-07-29T02:09:22;17.40;99.90
19941;DHT22;10132;50.864;5.176;2022-07-29T02:11:26;17.40;99.90
19941;DHT22;10132;50.864;5.176;2022-07-29T02:13:29;17.40;99.90
19941;DHT22;10132;50.864;5.176;2022-07-29T02:15:33;17.20;99.90
19941;DHT22;10132;50.864;5.176;2022-07-29T02:17:41;17.20;99.90
19941;DHT22;10132;50.864;5.176;2022-07-29T02:19:44;17.20;99.90
19941;DHT22;10132;50.864;5.176;2022-07-29T02:21:47;17.20;99.90
19941;DHT22;10132;50.864;5.176;2022-07-29T02:23:50;17.40;99.90
19941;DHT22;10132;50.864;5.176;2022-07-29T02:25:55;17.30;99.90
19941;DHT22;10132;50.864;5.176;2022-07-29T02:27:59;17.20;99.90
19941;DHT22;10132;50.864;5.176;2022-07-29T02:30:03;17.20;99.90
19941;DHT22;10132;50.864;5.176;2022-07-29T02:32:07;17.10;99.90
19941;DHT22;10132;50.864;5.176;2022-07-29T02:34:13;17.00;99.90
19941;DHT22;10132;50.864;5.176;2022-07-29T02:36:17;16.90;99.90
19941;DHT22;10132;50.864;5.176;2022-07-29T02:38:21;17.00;99.90
19941;DHT22;10132;50.864;5.176;2022-07-29T02:40:42;17.20;99.90
19941;DHT22;10132;50.864;5.176;2022-07-29T02:42:46;17.50;99.90
19941;DHT22;10132;50.864;5.176;2022-07-29T02:44:49;17.50;99.90
19941;DHT22;10132;50.864;5.176;2022-07-29T02:46:54;17.50;99.90
19941;DHT22;10132;50.864;5.176;2022-07-29T02:49:04;17.40;99.90
19941;DHT22;10132;50.864;5.176;2022-07-29T02:51:14;17.40;99.90
19941;DHT22;10132;50.864;5.176;2022-07-29T02:53:22;17.20;99.90
19941;DHT22;10132;50.864;5.176;2022-07-29T02:55:28;17.00;99.90
19941;DHT22;10132;50.864;5.176;2022-07-29T02:57:35;16.90;99.90
19941;DHT22;10132;50.864;5.176;2022-07-29T02:59:40;17.00;99.90
19941;DHT22;10132;50.864;5.176;2022-07-29T03:01:44;17.20;99.90
19941;DHT22;10132;50.864;5.176;2022-07-29T03:03:49;17.30;99.90
19941;DHT22;10132;50.864;5.176;2022-07-29T03:05:52;17.30;99.90
19941;DHT22;10132;50.864;5.176;2022-07-29T03:08:00;17.20;99.90
19941;DHT22;10132;50.864;5.176;2022-07-29T03:10:03;17.30;99.90
19941;DHT22;10132;50.864;5.176;2022-07-29T03:12:05;17.30;99.90
19941;DHT22;10132;50.864;5.176;2022-07-29T03:14:08;17.20;99.90
19941;DHT22;10132;50.864;5.176;2022-07-29T03:16:10;17.00;99.90
19941;DHT22;10132;50.864;5.176;2022-07-29T03:18:13;17.00;99.90
19941;DHT22;10132;50.864;5.176;2022-07-29T03:20:16;17.10;99.90
19941;DHT22;10132;50.864;5.176;2022-07-29T03:22:18;17.20;99.90
19941;DHT22;10132;50.864;5.176;2022-07-29T03:24:32;17.20;99.90
19941;DHT22;10132;50.864;5.176;2022-07-29T03:26:34;16.90;99.90
19941;DHT22;10132;50.864;5.176;2022-07-29T03:28:36;16.70;99.90
19941;DHT22;10132;50.864;5.176;2022-07-29T03:30:38;16.60;99.90
19941;DHT22;10132;50.864;5.176;2022-07-29T03:32:40;16.70;99.90
19941;DHT22;10132;50.864;5.176;2022-07-29T03:34:42;16.90;99.90
19941;DHT22;10132;50.864;5.176;2022-07-29T03:36:46;16.90;99.90
19941;DHT22;10132;50.864;5.176;2022-07-29T03:38:49;16.80;99.90
19941;DHT22;10132;50.864;5.176;2022-07-29T03:40:56;16.80;99.90
19941;DHT22;10132;50.864;5.176;2022-07-29T03:43:02;16.70;99.90
19941;DHT22;10132;50.864;5.176;2022-07-29T03:45:07;16.90;99.90
19941;DHT22;10132;50.864;5.176;2022-07-29T03:47:11;17.00;99.90
19941;DHT22;10132;50.864;5.176;2022-07-29T03:49:15;17.10;99.90
19941;DHT22;10132;50.864;5.176;2022-07-29T03:51:17;17.10;99.90
19941;DHT22;10132;50.864;5.176;2022-07-29T03:53:20;17.10;99.90
19941;DHT22;10132;50.864;5.176;2022-07-29T03:55:21;17.10;99.90
19941;DHT22;10132;50.864;5.176;2022-07-29T03:57:27;17.10;99.90
19941;DHT22;10132;50.864;5.176;2022-07-29T03:59:31;17.10;99.90
19941;DHT22;10132;50.864;5.176;2022-07-29T04:01:34;17.10;99.90
19941;DHT22;10132;50.864;5.176;2022-07-29T04:03:36;17.00;99.90
19941;DHT22;10132;50.864;5.176;2022-07-29T04:05:39;16.90;99.90
19941;DHT22;10132;50.864;5.176;2022-07-29T04:07:43;16.60;99.90
19941;DHT22;10132;50.864;5.176;2022-07-29T04:09:45;16.60;99.90
19941;DHT22;10132;50.864;5.176;2022-07-29T04:11:47;16.70;99.90
19941;DHT22;10132;50.864;5.176;2022-07-29T04:13:50;16.90;99.90
19941;DHT22;10132;50.864;5.176;2022-07-29T04:15:52;16.90;99.90
19941;DHT22;10132;50.864;5.176;2022-07-29T04:17:54;16.90;99.90
19941;DHT22;10132;50.864;5.176;2022-07-29T04:19:56;16.70;99.90
19941;DHT22;10132;50.864;5.176;2022-07-29T04:21:59;16.70;99.90
19941;DHT22;10132;50.864;5.176;2022-07-29T04:24:01;16.70;99.90
19941;DHT22;10132;50.864;5.176;2022-07-29T04:26:03;16.60;99.90
19941;DHT22;10132;50.864;5.176;2022-07-29T04:28:05;16.70;99.90
19941;DHT22;10132;50.864;5.176;2022-07-29T04:30:09;16.50;99.90
19941;DHT22;10132;50.864;5.176;2022-07-29T04:32:11;16.60;99.90
19941;DHT22;10132;50.864;5.176;2022-07-29T04:34:13;16.60;99.90
19941;DHT22;10132;50.864;5.176;2022-07-29T04:36:15;16.60;99.90
19941;DHT22;10132;50.864;5.176;2022-07-29T04:38:17;16.70;99.90
19941;DHT22;10132;50.864;5.176;2022-07-29T04:40:19;16.80;99.90
19941;DHT22;10132;50.864;5.176;2022-07-29T04:42:21;16.90;99.90
19941;DHT22;10132;50.864;5.176;2022-07-29T04:44:23;16.90;99.90
19941;DHT22;10132;50.864;5.176;2022-07-29T04:46:26;16.80;99.90
19941;DHT22;10132;50.864;5.176;2022-07-29T04:48:28;16.80;99.90
19941;DHT22;10132;50.864;5.176;2022-07-29T04:50:30;16.80;99.90
19941;DHT22;10132;50.864;5.176;2022-07-29T04:52:32;16.80;99.90
19941;DHT22;10132;50.864;5.176;2022-07-29T04:54:35;16.70;99.90
19941;DHT22;10132;50.864;5.176;2022-07-29T04:56:37;16.70;99.90
19941;DHT22;10132;50.864;5.176;2022-07-29T04:58:38;16.70;99.90
19941;DHT22;10132;50.864;5.176;2022-07-29T05:00:40;16.70;99.90
19941;DHT22;10132;50.864;5.176;2022-07-29T05:02:44;16.70;99.90
19941;DHT22;10132;50.864;5.176;2022-07-29T05:04:45;16.60;99.90
19941;DHT22;10132;50.864;5.176;2022-07-29T05:06:47;16.50;99.90
19941;DHT22;10132;50.864;5.176;2022-07-29T05:08:49;16.40;99.90
19941;DHT22;10132;50.864;5.176;2022-07-29T05:10:52;16.40;99.90
19941;DHT22;10132;50.864;5.176;2022-07-29T05:12:54;16.40;99.90
19941;DHT22;10132;50.864;5.176;2022-07-29T05:14:56;16.30;99.90
19941;DHT22;10132;50.864;5.176;2022-07-29T05:16:58;16.30;99.90
19941;DHT22;10132;50.864;5.176;2022-07-29T05:19:02;16.30;99.90
19941;DHT22;10132;50.864;5.176;2022-07-29T05:21:04;16.10;99.90
19941;DHT22;10132;50.864;5.176;2022-07-29T05:23:06;16.20;99.90
19941;DHT22;10132;50.864;5.176;2022-07-29T05:25:08;16.50;99.90
19941;DHT22;10132;50.864;5.176;2022-07-29T05:27:10;16.70;99.90
19941;DHT22;10132;50.864;5.176;2022-07-29T05:29:12;16.80;99.90
19941;DHT22;10132;50.864;5.176;2022-07-29T05:31:14;17.00;99.90
19941;DHT22;10132;50.864;5.176;2022-07-29T05:33:16;17.10;99.90
19941;DHT22;10132;50.864;5.176;2022-07-29T05:35:19;17.20;99.90
19941;DHT22;10132;50.864;5.176;2022-07-29T05:37:21;17.20;99.90
19941;DHT22;10132;50.864;5.176;2022-07-29T05:39:23;17.10;99.90
19941;DHT22;10132;50.864;5.176;2022-07-29T05:41:25;17.20;99.90
19941;DHT22;10132;50.864;5.176;2022-07-29T05:43:28;17.20;99.90
19941;DHT22;10132;50.864;5.176;2022-07-29T05:45:30;17.30;99.90
19941;DHT22;10132;50.864;5.176;2022-07-29T05:47:32;17.20;99.90
19941;DHT22;10132;50.864;5.176;2022-07-29T05:49:34;17.10;99.90
19941;DHT22;10132;50.864;5.176;2022-07-29T05:51:37;17.20;99.90
19941;DHT22;10132;50.864;5.176;2022-07-29T05:53:39;17.30;99.90
19941;DHT22;10132;50.864;5.176;2022-07-29T05:55:42;17.40;99.90
19941;DHT22;10132;50.864;5.176;2022-07-29T05:57:44;17.50;99.90
19941;DHT22;10132;50.864;5.176;2022-07-29T05:59:46;17.50;99.90
19941;DHT22;10132;50.864;5.176;2022-07-29T06:01:48;17.50;99.90
19941;DHT22;10132;50.864;5.176;2022-07-29T06:03:50;17.60;99.90
19941;DHT22;10132;50.864;5.176;2022-07-29T06:05:53;17.60;99.90
19941;DHT22;10132;50.864;5.176;2022-07-29T06:07:56;17.60;99.90
19941;DHT22;10132;50.864;5.176;2022-07-29T06:09:58;17.60;99.90
19941;DHT22;10132;50.864;5.176;2022-07-29T06:12:00;17.70;99.90
19941;DHT22;10132;50.864;5.176;2022-07-29T06:14:02;17.70;99.90
19941;DHT22;10132;50.864;5.176;2022-07-29T06:16:04;17.70;99.90
19941;DHT22;10132;50.864;5.176;2022-07-29T06:18:06;17.70;99.90
19941;DHT22;10132;50.864;5.176;2022-07-29T06:20:10;17.90;99.90
19941;DHT22;10132;50.864;5.176;2022-07-29T06:22:15;17.90;99.90
19941;DHT22;10132;50.864;5.176;2022-07-29T06:24:18;17.90;99.90
19941;DHT22;10132;50.864;5.176;2022-07-29T06:26:20;17.90;99.90
19941;DHT22;10132;50.864;5.176;2022-07-29T06:28:22;17.90;99.90
19941;DHT22;10132;50.864;5.176;2022-07-29T06:30:23;17.90;99.90
19941;DHT22;10132;50.864;5.176;2022-07-29T06:32:25;17.80;99.90
19941;DHT22;10132;50.864;5.176;2022-07-29T06:34:28;17.90;99.90
19941;DHT22;10132;50.864;5.176;2022-07-29T06:36:30;18.10;99.90
19941;DHT22;10132;50.864;5.176;2022-07-29T06:38:32;18.20;99.90
19941;DHT22;10132;50.864;5.176;2022-07-29T06:40:35;18.10;99.90
19941;DHT22;10132;50.864;5.176;2022-07-29T06:42:55;18.20;99.90
19941;DHT22;10132;50.864;5.176;2022-07-29T06:44:57;18.30;99.90
19941;DHT22;10132;50.864;5.176;2022-07-29T06:47:00;18.30;99.90
19941;DHT22;10132;50.864;5.176;2022-07-29T06:49:02;18.30;99.90
19941;DHT22;10132;50.864;5.176;2022-07-29T06:51:04;18.40;99.90
19941;DHT22;10132;50.864;5.176;2022-07-29T06:53:07;18.60;99.90
19941;DHT22;10132;50.864;5.176;2022-07-29T06:55:09;18.60;99.90
19941;DHT22;10132;50.864;5.176;2022-07-29T06:57:12;18.70;99.90
19941;DHT22;10132;50.864;5.176;2022-07-29T06:59:14;18.80;99.90
19941;DHT22;10132;50.864;5.176;2022-07-29T07:01:16;18.90;99.90
19941;DHT22;10132;50.864;5.176;2022-07-29T07:03:18;19.00;99.90
19941;DHT22;10132;50.864;5.176;2022-07-29T07:05:21;19.10;99.90
19941;DHT22;10132;50.864;5.176;2022-07-29T07:07:23;19.10;99.90
19941;DHT22;10132;50.864;5.176;2022-07-29T07:09:25;19.20;99.90
19941;DHT22;10132;50.864;5.176;2022-07-29T07:11:27;19.10;99.90
19941;DHT22;10132;50.864;5.176;2022-07-29T07:13:30;19.10;99.90
19941;DHT22;10132;50.864;5.176;2022-07-29T07:15:35;19.20;99.90
19941;DHT22;10132;50.864;5.176;2022-07-29T07:17:38;19.20;99.90
19941;DHT22;10132;50.864;5.176;2022-07-29T07:19:40;19.20;99.90
19941;DHT22;10132;50.864;5.176;2022-07-29T07:21:41;19.30;99.90
19941;DHT22;10132;50.864;5.176;2022-07-29T07:23:43;19.30;99.90
19941;DHT22;10132;50.864;5.176;2022-07-29T07:25:45;19.40;99.90
19941;DHT22;10132;50.864;5.176;2022-07-29T07:27:47;19.40;99.90
19941;DHT22;10132;50.864;5.176;2022-07-29T07:29:50;19.50;99.90
19941;DHT22;10132;50.864;5.176;2022-07-29T07:31:52;19.50;99.90
19941;DHT22;10132;50.864;5.176;2022-07-29T07:33:55;19.60;99.90
19941;DHT22;10132;50.864;5.176;2022-07-29T07:35:57;19.70;99.90
19941;DHT22;10132;50.864;5.176;2022-07-29T07:37:59;19.70;99.90
19941;DHT22;10132;50.864;5.176;2022-07-29T07:40:01;19.80;99.90
19941;DHT22;10132;50.864;5.176;2022-07-29T07:42:03;20.20;99.90
19941;DHT22;10132;50.864;5.176;2022-07-29T07:44:05;20.30;99.90
19941;DHT22;10132;50.864;5.176;2022-07-29T07:46:09;20.20;99.90
19941;DHT22;10132;50.864;5.176;2022-07-29T07:48:10;20.20;99.90
19941;DHT22;10132;50.864;5.176;2022-07-29T07:50:13;20.30;99.90
19941;DHT22;10132;50.864;5.176;2022-07-29T07:52:16;20.60;99.90
19941;DHT22;10132;50.864;5.176;2022-07-29T07:54:18;20.90;99.90
19941;DHT22;10132;50.864;5.176;2022-07-29T07:56:20;21.10;99.90
19941;DHT22;10132;50.864;5.176;2022-07-29T07:58:22;21.00;99.90
19941;DHT22;10132;50.864;5.176;2022-07-29T08:00:24;21.10;99.90
19941;DHT22;10132;50.864;5.176;2022-07-29T08:02:27;21.30;99.90
19941;DHT22;10132;50.864;5.176;2022-07-29T08:04:29;21.40;99.90
19941;DHT22;10132;50.864;5.176;2022-07-29T08:06:31;21.40;99.90
19941;DHT22;10132;50.864;5.176;2022-07-29T08:08:35;21.60;99.90
19941;DHT22;10132;50.864;5.176;2022-07-29T08:10:37;21.60;99.90
19941;DHT22;10132;50.864;5.176;2022-07-29T08:12:54;21.70;99.90
19941;DHT22;10132;50.864;5.176;2022-07-29T08:14:56;21.60;99.90
19941;DHT22;10132;50.864;5.176;2022-07-29T08:16:58;21.70;99.90
19941;DHT22;10132;50.864;5.176;2022-07-29T08:19:01;21.70;99.90
19941;DHT22;10132;50.864;5.176;2022-07-29T08:21:04;21.70;99.90
19941;DHT22;10132;50.864;5.176;2022-07-29T08:23:07;21.70;99.90
19941;DHT22;10132;50.864;5.176;2022-07-29T08:25:10;21.80;99.90
19941;DHT22;10132;50.864;5.176;2022-07-29T08:27:12;21.90;99.90
19941;DHT22;10132;50.864;5.176;2022-07-29T08:29:15;21.90;99.90
19941;DHT22;10132;50.864;5.176;2022-07-29T08:31:17;22.20;99.90
19941;DHT22;10132;50.864;5.176;2022-07-29T08:33:19;22.20;99.90
19941;DHT22;10132;50.864;5.176;2022-07-29T08:35:23;22.20;99.90
19941;DHT22;10132;50.864;5.176;2022-07-29T08:37:25;22.20;99.90
19941;DHT22;10132;50.864;5.176;2022-07-29T08:39:27;22.00;99.90
19941;DHT22;10132;50.864;5.176;2022-07-29T08:41:28;22.00;99.90
19941;DHT22;10132;50.864;5.176;2022-07-29T08:43:31;22.10;99.90
19941;DHT22;10132;50.864;5.176;2022-07-29T08:45:43;22.30;99.90
19941;DHT22;10132;50.864;5.176;2022-07-29T08:47:45;22.10;99.90
19941;DHT22;10132;50.864;5.176;2022-07-29T08:49:47;22.30;99.90
19941;DHT22;10132;50.864;5.176;2022-07-29T08:51:53;22.20;99.90
19941;DHT22;10132;50.864;5.176;2022-07-29T08:53:55;22.20;99.90
19941;DHT22;10132;50.864;5.176;2022-07-29T08:55:57;22.30;99.90
19941;DHT22;10132;50.864;5.176;2022-07-29T08:58:00;22.40;99.90
19941;DHT22;10132;50.864;5.176;2022-07-29T09:00:06;22.70;99.90
19941;DHT22;10132;50.864;5.176;2022-07-29T09:02:16;22.80;99.90
19941;DHT22;10132;50.864;5.176;2022-07-29T09:04:20;23.00;99.90
19941;DHT22;10132;50.864;5.176;2022-07-29T09:06:23;23.10;99.90
19941;DHT22;10132;50.864;5.176;2022-07-29T09:08:31;22.90;99.90
19941;DHT22;10132;50.864;5.176;2022-07-29T09:10:35;22.80;99.90
19941;DHT22;10132;50.864;5.176;2022-07-29T09:12:37;22.90;99.90
19941;DHT22;10132;50.864;5.176;2022-07-29T09:14:40;22.90;99.90
19941;DHT22;10132;50.864;5.176;2022-07-29T09:16:51;23.20;99.90
19941;DHT22;10132;50.864;5.176;2022-07-29T09:18:53;23.20;99.90
19941;DHT22;10132;50.864;5.176;2022-07-29T09:20:55;23.20;99.90
19941;DHT22;10132;50.864;5.176;2022-07-29T09:23:15;23.20;99.90
19941;DHT22;10132;50.864;5.176;2022-07-29T09:27:50;23.50;99.90
19941;DHT22;10132;50.864;5.176;2022-07-29T09:29:59;23.80;99.90
19941;DHT22;10132;50.864;5.176;2022-07-29T09:32:06;24.00;99.90
19941;DHT22;10132;50.864;5.176;2022-07-29T09:34:13;24.00;99.90
19941;DHT22;10132;50.864;5.176;2022-07-29T09:36:15;23.80;99.90
19941;DHT22;10132;50.864;5.176;2022-07-29T09:38:17;23.70;99.90
19941;DHT22;10132;50.864;5.176;2022-07-29T09:40:20;24.00;99.90
19941;DHT22;10132;50.864;5.176;2022-07-29T09:42:30;24.20;99.90
19941;DHT22;10132;50.864;5.176;2022-07-29T09:44:46;24.40;99.90
19941;DHT22;10132;50.864;5.176;2022-07-29T09:46:56;24.30;99.90
19941;DHT22;10132;50.864;5.176;2022-07-29T09:49:09;24.40;99.90
19941;DHT22;10132;50.864;5.176;2022-07-29T09:51:17;24.60;99.90
19941;DHT22;10132;50.864;5.176;2022-07-29T09:53:32;24.50;99.90
19941;DHT22;10132;50.864;5.176;2022-07-29T09:55:46;24.70;99.90
19941;DHT22;10132;50.864;5.176;2022-07-29T09:57:48;24.70;99.90
19941;DHT22;10132;50.864;5.176;2022-07-29T09:59:58;24.80;99.90
19941;DHT22;10132;50.864;5.176;2022-07-29T10:02:00;24.80;99.90
19941;DHT22;10132;50.864;5.176;2022-07-29T10:04:02;24.70;99.90
19941;DHT22;10132;50.864;5.176;2022-07-29T10:06:08;24.80;99.90
19941;DHT22;10132;50.864;5.176;2022-07-29T10:08:11;24.90;99.90
19941;DHT22;10132;50.864;5.176;2022-07-29T10:10:19;25.10;99.90
19941;DHT22;10132;50.864;5.176;2022-07-29T10:12:22;25.30;99.90
19941;DHT22;10132;50.864;5.176;2022-07-29T10:14:24;25.40;99.90
19941;DHT22;10132;50.864;5.176;2022-07-29T10:16:27;25.20;99.90
19941;DHT22;10132;50.864;5.176;2022-07-29T10:18:34;25.20;99.90
19941;DHT22;10132;50.864;5.176;2022-07-29T10:20:36;25.00;99.90
19941;DHT22;10132;50.864;5.176;2022-07-29T10:22:38;24.70;99.90
19941;DHT22;10132;50.864;5.176;2022-07-29T10:24:40;24.50;99.90
19941;DHT22;10132;50.864;5.176;2022-07-29T10:26:42;24.60;99.90
19941;DHT22;10132;50.864;5.176;2022-07-29T10:28:46;24.60;99.90
19941;DHT22;10132;50.864;5.176;2022-07-29T10:30:50;24.70;99.90
19941;DHT22;10132;50.864;5.176;2022-07-29T10:33:15;24.80;99.90
19941;DHT22;10132;50.864;5.176;2022-07-29T10:35:27;25.10;99.90
19941;DHT22;10132;50.864;5.176;2022-07-29T10:37:39;25.70;99.90
19941;DHT22;10132;50.864;5.176;2022-07-29T10:39:54;25.80;99.90
19941;DHT22;10132;50.864;5.176;2022-07-29T10:42:06;25.90;99.90
19941;DHT22;10132;50.864;5.176;2022-07-29T10:44:13;26.00;99.90
19941;DHT22;10132;50.864;5.176;2022-07-29T10:46:16;26.10;99.90
19941;DHT22;10132;50.864;5.176;2022-07-29T10:48:20;26.30;99.90
19941;DHT22;10132;50.864;5.176;2022-07-29T10:50:22;26.10;99.90
19941;DHT22;10132;50.864;5.176;2022-07-29T10:52:24;26.10;99.90
19941;DHT22;10132;50.864;5.176;2022-07-29T10:54:48;26.30;99.90
19941;DHT22;10132;50.864;5.176;2022-07-29T10:56:52;26.50;99.90
19941;DHT22;10132;50.864;5.176;2022-07-29T10:59:24;26.60;99.90
19941;DHT22;10132;50.864;5.176;2022-07-29T11:01:30;27.00;99.90
19941;DHT22;10132;50.864;5.176;2022-07-29T11:03:47;26.80;99.90
19941;DHT22;10132;50.864;5.176;2022-07-29T11:05:56;26.50;99.90
19941;DHT22;10132;50.864;5.176;2022-07-29T11:08:19;26.60;99.90
19941;DHT22;10132;50.864;5.176;2022-07-29T11:10:31;26.60;99.90
19941;DHT22;10132;50.864;5.176;2022-07-29T11:12:54;26.50;99.90
19941;DHT22;10132;50.864;5.176;2022-07-29T11:14:56;26.40;99.90
19941;DHT22;10132;50.864;5.176;2022-07-29T11:17:01;26.50;99.90
19941;DHT22;10132;50.864;5.176;2022-07-29T11:19:21;26.60;99.90
19941;DHT22;10132;50.864;5.176;2022-07-29T11:21:35;27.00;99.90
19941;DHT22;10132;50.864;5.176;2022-07-29T11:23:37;27.20;99.90
19941;DHT22;10132;50.864;5.176;2022-07-29T11:25:42;27.30;99.90
19941;DHT22;10132;50.864;5.176;2022-07-29T11:27:45;27.10;99.90
19941;DHT22;10132;50.864;5.176;2022-07-29T11:29:52;27.20;99.90
19941;DHT22;10132;50.864;5.176;2022-07-29T11:32:08;27.00;99.90
19941;DHT22;10132;50.864;5.176;2022-07-29T11:34:19;26.90;99.90
19941;DHT22;10132;50.864;5.176;2022-07-29T11:36:21;26.50;99.90
19941;DHT22;10132;50.864;5.176;2022-07-29T11:38:25;26.60;99.90
19941;DHT22;10132;50.864;5.176;2022-07-29T11:40:28;27.10;99.90
19941;DHT22;10132;50.864;5.176;2022-07-29T11:42:44;27.20;99.90
19941;DHT22;10132;50.864;5.176;2022-07-29T11:44:57;27.30;99.90
19941;DHT22;10132;50.864;5.176;2022-07-29T11:46:59;27.80;99.90
19941;DHT22;10132;50.864;5.176;2022-07-29T11:49:02;28.20;99.90
19941;DHT22;10132;50.864;5.176;2022-07-29T11:51:09;28.10;99.90
19941;DHT22;10132;50.864;5.176;2022-07-29T11:53:13;28.10;99.90
19941;DHT22;10132;50.864;5.176;2022-07-29T11:55:17;28.30;99.90
19941;DHT22;10132;50.864;5.176;2022-07-29T11:57:20;28.30;99.90
19941;DHT22;10132;50.864;5.176;2022-07-29T11:59:22;28.20;99.90
19941;DHT22;10132;50.864;5.176;2022-07-29T12:01:24;28.40;99.90
19941;DHT22;10132;50.864;5.176;2022-07-29T12:03:28;28.50;99.90
19941;DHT22;10132;50.864;5.176;2022-07-29T12:05:39;28.50;99.90
19941;DHT22;10132;50.864;5.176;2022-07-29T12:07:43;28.90;99.90
19941;DHT22;10132;50.864;5.176;2022-07-29T12:09:50;28.40;99.90
19941;DHT22;10132;50.864;5.176;2022-07-29T12:11:56;27.80;99.90
19941;DHT22;10132;50.864;5.176;2022-07-29T12:13:59;27.20;99.90
19941;DHT22;10132;50.864;5.176;2022-07-29T12:16:01;26.80;99.90
19941;DHT22;10132;50.864;5.176;2022-07-29T12:18:13;26.90;99.90
19941;DHT22;10132;50.864;5.176;2022-07-29T12:20:23;27.20;99.90
19941;DHT22;10132;50.864;5.176;2022-07-29T12:22:26;27.90;99.90
19941;DHT22;10132;50.864;5.176;2022-07-29T12:24:42;28.40;99.90
19941;DHT22;10132;50.864;5.176;2022-07-29T12:26:50;28.80;99.90
19941;DHT22;10132;50.864;5.176;2022-07-29T12:28:52;29.00;99.90
19941;DHT22;10132;50.864;5.176;2022-07-29T12:30:55;29.00;99.90
19941;DHT22;10132;50.864;5.176;2022-07-29T12:32:57;29.10;99.90
19941;DHT22;10132;50.864;5.176;2022-07-29T12:35:02;29.30;99.90
19941;DHT22;10132;50.864;5.176;2022-07-29T12:37:04;29.10;99.90
19941;DHT22;10132;50.864;5.176;2022-07-29T12:39:10;28.90;99.90
19941;DHT22;10132;50.864;5.176;2022-07-29T12:41:14;28.80;99.90
19941;DHT22;10132;50.864;5.176;2022-07-29T12:43:17;28.90;99.90
19941;DHT22;10132;50.864;5.176;2022-07-29T12:45:28;29.00;99.90
19941;DHT22;10132;50.864;5.176;2022-07-29T12:47:30;29.20;99.90
19941;DHT22;10132;50.864;5.176;2022-07-29T12:49:32;29.70;99.90
19941;DHT22;10132;50.864;5.176;2022-07-29T12:51:35;30.30;99.90
19941;DHT22;10132;50.864;5.176;2022-07-29T12:53:38;30.70;99.90
19941;DHT22;10132;50.864;5.176;2022-07-29T12:55:42;30.80;99.90
19941;DHT22;10132;50.864;5.176;2022-07-29T12:57:46;30.90;99.90
19941;DHT22;10132;50.864;5.176;2022-07-29T13:00:00;30.30;99.90
19941;DHT22;10132;50.864;5.176;2022-07-29T13:02:03;30.10;99.90
19941;DHT22;10132;50.864;5.176;2022-07-29T13:04:05;30.20;99.90
19941;DHT22;10132;50.864;5.176;2022-07-29T13:06:07;30.40;99.90
19941;DHT22;10132;50.864;5.176;2022-07-29T13:08:16;30.80;99.90
19941;DHT22;10132;50.864;5.176;2022-07-29T13:10:20;30.90;99.90